Time;durP1;ratioP1;P1;durP2;ratioP2;P2;SDS_P1;SDS_P2;PMS_P1;PMS_P2;Temp;Humidity;BMP_temperature;BMP_pressure;BME280_temperature;BME280_humidity;BME280_pressure;Samples;Min_cycle;Max_cycle;Signal;HPM_P1;HPM_P2
2021/05/30 00:02:25;;;;;;;4.25;3.00;;;;;;;14.74;86.76;99320.73;1616283;87;21104;-78
2021/05/30 00:04:52;;;;;;;3.33;3.00;;;;;;;14.76;86.75;99322.61;1637026;86;22216;-80
2021/05/30 00:07:18;;;;;;;3.37;3.08;;;;;;;14.72;86.66;99319.41;1638630;87;21200;-72
2021/05/30 00:09:46;;;;;;;3.37;2.50;;;;;;;14.68;86.64;99322.41;1618809;87;21092;-72
2021/05/30 00:12:13;;;;;;;2.77;2.52;;;;;;;14.62;86.86;99314.09;1636721;87;21632;-70
2021/05/30 00:14:41;;;;;;;4.55;3.50;;;;;;;14.53;87.14;99318.52;1627856;86;20997;-72
2021/05/30 00:17:09;;;;;;;2.27;2.10;;;;;;;14.44;87.41;99312.88;1622492;88;21018;-69
2021/05/30 00:19:37;;;;;;;6.87;2.92;;;;;;;14.37;87.63;99319.19;1622660;88;21113;-70
2021/05/30 00:22:05;;;;;;;2.65;2.45;;;;;;;14.33;87.57;99319.46;1609293;87;21047;-71
2021/05/30 00:24:31;;;;;;;5.00;3.27;;;;;;;14.29;87.82;99320.55;1544421;91;21569;-69
2021/05/30 00:26:58;;;;;;;6.55;3.40;;;;;;;14.26;87.81;99318.42;1547160;91;21104;-70
2021/05/30 00:29:24;;;;;;;5.17;3.52;;;;;;;14.25;87.72;99319.51;1615089;86;21642;-70
2021/05/30 00:31:51;;;;;;;3.45;3.15;;;;;;;14.26;87.57;99314.91;1553614;91;21860;-68
2021/05/30 00:34:17;;;;;;;3.72;3.37;;;;;;;14.26;87.57;99320.31;1571323;90;20981;-82
2021/05/30 00:36:44;;;;;;;3.75;3.30;;;;;;;14.25;87.45;99315.45;1608783;88;21097;-74
2021/05/30 00:39:10;;;;;;;3.02;2.75;;;;;;;14.23;87.41;99316.30;1608797;87;21161;-74
2021/05/30 00:41:37;;;;;;;4.17;3.02;;;;;;;14.23;87.47;99319.00;1573236;90;21087;-74
2021/05/30 00:44:28;;;;;;;4.08;2.67;;;;;;;14.21;87.56;99315.76;1617512;87;21009;-72
2021/05/30 00:46:55;;;;;;;2.83;2.62;;;;;;;14.21;87.64;99319.81;1546914;91;21081;-73
2021/05/30 00:49:23;;;;;;;4.10;3.25;;;;;;;14.21;87.59;99317.65;1546903;91;21708;-74
2021/05/30 00:51:49;;;;;;;4.08;2.98;;;;;;;14.15;87.56;99317.45;1560591;91;21163;-72
2021/05/30 00:54:17;;;;;;;4.00;3.62;;;;;;;14.13;87.74;99320.97;1556254;91;21688;-73
2021/05/30 00:56:44;;;;;;;4.40;3.42;;;;;;;14.11;87.74;99315.02;1543890;91;21213;-72
2021/05/30 00:59:13;;;;;;;2.90;2.70;;;;;;;14.12;87.59;99313.94;1560803;90;21286;-72
2021/05/30 01:01:40;;;;;;;3.60;3.30;;;;;;;14.12;87.48;99314.75;1623946;86;22163;-72
2021/05/30 01:04:09;;;;;;;4.03;2.50;;;;;;;14.10;87.42;99313.42;1623921;88;21085;-73
2021/05/30 01:06:36;;;;;;;2.75;2.55;;;;;;;14.09;87.26;99313.16;1559157;90;21089;-74
2021/05/30 01:09:04;;;;;;;2.62;2.42;;;;;;;14.04;87.16;99320.77;1642775;86;21052;-73
2021/05/30 01:11:30;;;;;;;3.33;2.80;;;;;;;14.05;87.19;99325.63;1607899;87;21029;-73
2021/05/30 01:13:59;;;;;;;4.78;2.52;;;;;;;14.07;87.16;99324.79;1574576;90;21120;-72
2021/05/30 01:16:27;;;;;;;3.67;3.37;;;;;;;14.05;87.15;99323.73;1576868;89;21633;-73
2021/05/30 01:19:00;;;;;;;3.27;2.60;;;;;;;14.04;87.21;99322.12;1599579;89;21046;-73
2021/05/30 01:21:23;;;;;;;5.97;3.50;;;;;;;14.04;87.32;99328.06;1600170;89;21114;-73
2021/05/30 01:23:52;;;;;;;2.98;2.47;;;;;;;14.02;87.31;99322.12;1600569;89;21618;-72
2021/05/30 01:26:19;;;;;;;7.25;3.45;;;;;;;14.02;87.46;99328.88;1600725;89;21090;-73
2021/05/30 01:28:45;;;;;;;4.45;2.72;;;;;;;14.03;87.53;99327.25;1575634;90;21129;-73
2021/05/30 01:31:14;;;;;;;3.58;2.60;;;;;;;14.06;87.63;99336.15;1607933;87;21014;-73
2021/05/30 01:33:41;;;;;;;3.83;3.33;;;;;;;14.06;87.71;99337.50;1575259;89;21852;-72
2021/05/30 01:36:07;;;;;;;4.40;3.00;;;;;;;14.07;87.61;99339.66;1582649;89;21065;-72
2021/05/30 01:38:34;;;;;;;2.77;2.58;;;;;;;14.03;87.65;99334.02;1608637;88;21072;-73
2021/05/30 01:41:00;;;;;;;4.67;2.83;;;;;;;13.98;87.67;99329.45;1608933;89;21565;-73
2021/05/30 01:43:27;;;;;;;2.40;2.20;;;;;;;13.96;87.83;99332.97;1585348;89;21044;-72
2021/05/30 01:45:53;;;;;;;11.15;3.58;;;;;;;13.96;87.93;99338.37;1585335;89;21073;-72
2021/05/30 01:48:20;;;;;;;3.42;3.12;;;;;;;13.96;88.01;99332.16;1579950;89;21127;-73
2021/05/30 01:50:47;;;;;;;3.37;3.08;;;;;;;13.95;88.08;99333.27;1571338;90;21657;-72
2021/05/30 01:53:18;;;;;;;3.35;3.10;;;;;;;13.93;88.12;99324.62;1579516;88;21638;-72
2021/05/30 01:58:14;;;;;;;4.72;3.02;;;;;;;13.95;88.16;99323.81;1617968;87;22016;-73
2021/05/30 02:00:40;;;;;;;2.27;2.17;;;;;;;13.95;88.12;99324.62;1568311;88;21020;-72
2021/05/30 02:03:08;;;;;;;3.17;2.98;;;;;;;13.98;87.96;99334.05;1593777;88;22302;-73
2021/05/30 02:05:36;;;;;;;6.10;3.02;;;;;;;13.97;87.74;99343.24;1618357;88;21011;-73
2021/05/30 02:08:04;;;;;;;2.95;2.75;;;;;;;13.93;87.67;99348.95;1596315;88;21551;-73
2021/05/30 02:10:30;;;;;;;2.60;2.22;;;;;;;13.91;87.59;99347.06;1580994;89;21137;-72
2021/05/30 02:12:58;;;;;;;4.40;3.10;;;;;;;13.89;87.52;99346.00;1563215;90;21595;-72
2021/05/30 02:15:25;;;;;;;3.05;2.75;;;;;;;13.90;87.46;99344.11;1577466;90;21100;-73
2021/05/30 02:17:51;;;;;;;6.53;2.30;;;;;;;13.89;87.37;99339.79;1589410;89;21621;-74
2021/05/30 02:20:18;;;;;;;3.65;3.35;;;;;;;13.90;87.39;99344.92;1622690;88;21005;-73
2021/05/30 02:22:45;;;;;;;13.38;3.47;;;;;;;13.89;87.22;99344.66;1606028;88;21097;-73
2021/05/30 02:25:12;;;;;;;3.87;2.98;;;;;;;13.85;87.15;99342.80;1601117;89;21620;-73
2021/05/30 02:27:38;;;;;;;8.05;2.17;;;;;;;13.81;87.27;99337.11;1598009;88;21002;-73
2021/05/30 02:30:07;;;;;;;2.80;2.60;;;;;;;13.81;87.30;99346.58;1590175;88;21092;-73
2021/05/30 02:32:33;;;;;;;3.83;2.70;;;;;;;13.81;87.30;99343.09;1593583;88;20994;-73
2021/05/30 02:35:00;;;;;;;2.62;2.42;;;;;;;13.78;87.33;99345.80;1628480;88;21102;-73
2021/05/30 02:37:26;;;;;;;4.85;3.27;;;;;;;13.76;87.31;99347.98;1628290;87;21053;-72
2021/05/30 02:39:53;;;;;;;3.55;3.33;;;;;;;13.72;87.48;99352.84;1628237;86;21105;-71
2021/05/30 02:42:19;;;;;;;3.17;2.83;;;;;;;13.66;87.60;99349.38;1595164;87;21117;-72
2021/05/30 02:44:45;;;;;;;4.45;4.12;;;;;;;13.66;87.67;99353.98;1589324;89;21076;-71
2021/05/30 02:47:13;;;;;;;5.05;3.17;;;;;;;13.68;87.73;99355.84;1622708;88;21042;-71
2021/05/30 02:49:40;;;;;;;4.22;3.30;;;;;;;13.70;87.57;99346.39;1628133;86;20970;-72
2021/05/30 02:52:06;;;;;;;3.25;2.52;;;;;;;13.71;87.44;99356.66;1622458;87;21070;-71
2021/05/30 02:54:33;;;;;;;3.42;3.12;;;;;;;13.68;87.41;99351.25;1628348;87;20970;-71
2021/05/30 02:57:01;;;;;;;16.90;2.98;;;;;;;13.69;87.36;99345.30;1627665;87;20930;-72
2021/05/30 02:59:27;;;;;;;4.65;2.75;;;;;;;13.70;87.30;99346.39;1589667;89;22119;-73
2021/05/30 03:01:53;;;;;;;3.42;3.12;;;;;;;13.73;87.17;99346.36;1589804;88;20974;-73
2021/05/30 03:04:20;;;;;;;4.53;3.12;;;;;;;13.76;87.03;99345.28;1627819;88;21029;-72
2021/05/30 03:06:46;;;;;;;7.03;3.00;;;;;;;13.78;86.72;99349.84;1597128;87;21681;-72
2021/05/30 03:09:13;;;;;;;4.22;2.70;;;;;;;13.79;86.69;99352.81;1589412;89;21140;-71
2021/05/30 03:11:42;;;;;;;3.40;3.10;;;;;;;13.85;86.62;99356.31;1596245;88;21061;-73
2021/05/30 03:14:08;;;;;;;2.95;2.70;;;;;;;13.90;86.39;99358.44;1614060;88;21591;-73
2021/05/30 03:16:34;;;;;;;3.00;2.80;;;;;;;13.96;86.01;99355.14;1579681;88;21042;-72
2021/05/30 03:19:02;;;;;;;2.55;2.35;;;;;;;14.04;85.79;99364.57;1577447;90;21090;-74
2021/05/30 03:21:29;;;;;;;5.35;2.58;;;;;;;14.06;85.62;99365.08;1577472;88;21643;-72
2021/05/30 03:23:56;;;;;;;3.87;3.55;;;;;;;14.08;85.44;99358.32;1607867;88;21510;-73
2021/05/30 03:26:22;;;;;;;3.50;3.20;;;;;;;14.11;85.44;99360.99;1577490;88;21637;-74
2021/05/30 03:28:49;;;;;;;2.35;2.15;;;;;;;14.19;85.53;99355.81;1618559;88;21022;-73
2021/05/30 03:31:15;;;;;;;4.42;3.05;;;;;;;14.26;85.08;99356.30;1565456;89;21133;-73
2021/05/30 03:33:42;;;;;;;5.92;3.00;;;;;;;14.32;84.77;99366.54;1594237;88;21511;-72
2021/05/30 03:36:13;;;;;;;2.98;2.67;;;;;;;14.30;84.41;99367.34;1607114;88;21077;-73
2021/05/30 03:38:38;;;;;;;7.35;3.05;;;;;;;14.30;84.40;99355.98;1592524;90;21097;-71
2021/05/30 03:41:07;;;;;;;8.65;3.52;;;;;;;14.31;84.33;99366.27;1592736;88;21605;-72
2021/05/30 03:43:33;;;;;;;3.95;3.55;;;;;;;14.32;84.36;99363.29;1588424;88;21042;-75
2021/05/30 03:46:00;;;;;;;5.72;2.95;;;;;;;14.38;84.42;99360.03;1618407;88;21050;-73
2021/05/30 03:48:27;;;;;;;5.15;3.10;;;;;;;14.45;84.27;99367.27;1618425;88;21034;-73
2021/05/30 03:50:53;;;;;;;2.90;2.62;;;;;;;14.47;84.22;99362.94;1619268;88;21054;-73
2021/05/30 03:53:20;;;;;;;3.00;2.80;;;;;;;14.47;84.22;99366.45;1576499;88;21080;-72
2021/05/30 03:55:47;;;;;;;2.92;2.72;;;;;;;14.46;83.64;99358.06;1580325;88;21665;-74
2021/05/30 03:58:15;;;;;;;4.55;3.20;;;;;;;14.40;83.38;99359.19;1577853;90;21026;-73
2021/05/30 04:00:42;;;;;;;4.83;3.30;;;;;;;14.41;83.37;99360.81;1577874;90;21108;-73
2021/05/30 04:03:09;;;;;;;6.72;3.52;;;;;;;14.38;83.62;99360.84;1599964;88;21035;-73
2021/05/30 04:05:36;;;;;;;3.00;2.80;;;;;;;14.43;83.86;99362.70;1596583;88;21555;-73
2021/05/30 04:08:03;;;;;;;3.17;2.98;;;;;;;14.49;83.92;99366.96;1596492;88;21098;-74
2021/05/30 04:10:30;;;;;;;4.28;3.70;;;;;;;14.51;83.83;99369.39;1612209;88;21670;-73
2021/05/30 04:12:57;;;;;;;3.62;3.33;;;;;;;14.59;83.75;99376.89;1601781;88;21566;-73
2021/05/30 04:15:26;;;;;;;3.35;3.08;;;;;;;14.64;83.29;99382.27;1590418;88;21061;-74
2021/05/30 04:17:52;;;;;;;4.90;3.58;;;;;;;14.66;82.84;99388.22;1598559;88;21030;-74
2021/05/30 04:20:20;;;;;;;3.58;3.10;;;;;;;14.65;82.52;99394.17;1618762;88;21066;-74
2021/05/30 04:22:46;;;;;;;2.83;2.62;;;;;;;14.70;82.49;99389.26;1581191;88;21089;-74
2021/05/30 04:25:14;;;;;;;3.27;2.95;;;;;;;14.78;82.47;99400.28;1572423;90;21630;-72
2021/05/30 04:27:41;;;;;;;3.60;3.25;;;;;;;14.86;81.48;99383.17;1573544;90;21029;-72
2021/05/30 04:30:10;;;;;;;4.05;3.35;;;;;;;14.87;80.66;99380.73;1593429;90;21566;-72
2021/05/30 04:32:37;;;;;;;3.42;3.12;;;;;;;14.87;80.98;99384.22;1573552;90;21049;-73
2021/05/30 04:35:05;;;;;;;3.25;3.05;;;;;;;14.91;80.80;99377.70;1593349;88;21079;-73
2021/05/30 04:37:31;;;;;;;3.58;2.60;;;;;;;14.95;80.36;99386.33;1617695;87;21097;-75
2021/05/30 04:39:58;;;;;;;2.92;2.70;;;;;;;14.98;79.78;99383.58;1618573;87;21022;-73
2021/05/30 04:42:24;;;;;;;3.40;3.10;;;;;;;14.95;79.03;99371.98;1617871;88;21582;-73
2021/05/30 04:44:51;;;;;;;4.05;2.85;;;;;;;14.87;79.29;99378.02;1598607;88;21051;-72
2021/05/30 04:47:17;;;;;;;6.25;2.95;;;;;;;14.81;79.73;99369.13;1618988;87;21030;-72
2021/05/30 04:49:44;;;;;;;4.42;3.42;;;;;;;14.81;80.03;99359.66;1618789;87;21086;-74
2021/05/30 04:52:11;;;;;;;3.42;3.12;;;;;;;14.82;80.19;99367.47;1618784;87;21642;-72
2021/05/30 04:54:37;;;;;;;3.58;3.30;;;;;;;14.83;80.09;99360.97;1579592;89;21542;-73
2021/05/30 04:57:06;;;;;;;3.33;2.83;;;;;;;14.87;80.00;99365.27;1596366;88;21146;-74
2021/05/30 04:59:33;;;;;;;4.45;3.05;;;;;;;14.92;80.28;99371.17;1578800;88;21663;-74
2021/05/30 05:01:59;;;;;;;4.05;3.30;;;;;;;14.93;79.43;99375.50;1616028;88;21077;-72
2021/05/30 05:04:27;;;;;;;2.70;2.52;;;;;;;14.95;79.53;99371.98;1618682;87;20994;-71
2021/05/30 05:06:54;;;;;;;3.85;2.65;;;;;;;14.99;79.37;99377.08;1618672;88;21095;-73
2021/05/30 05:09:21;;;;;;;3.58;3.27;;;;;;;15.05;79.51;99382.71;1618813;88;21098;-73
2021/05/30 05:11:50;;;;;;;3.87;2.90;;;;;;;15.18;79.29;99389.61;1587831;88;21042;-71
2021/05/30 05:14:18;;;;;;;2.70;2.50;;;;;;;15.31;79.08;99394.88;1584628;87;21126;-73
2021/05/30 05:16:44;;;;;;;11.08;2.83;;;;;;;15.41;78.29;99402.89;1592808;88;21021;-70
2021/05/30 05:19:10;;;;;;;2.35;2.15;;;;;;;15.51;77.76;99391.97;1571399;90;21033;-71
2021/05/30 05:21:37;;;;;;;2.95;2.65;;;;;;;15.56;77.20;99385.13;1587862;88;21628;-72
2021/05/30 05:24:06;;;;;;;3.40;3.00;;;;;;;15.56;76.41;99381.06;1577333;90;21139;-71
2021/05/30 05:26:33;;;;;;;3.87;3.33;;;;;;;15.60;75.97;99388.06;1577105;90;21130;-71
2021/05/30 05:28:59;;;;;;;6.97;2.90;;;;;;;15.67;76.11;99389.89;1577328;89;21105;-71
2021/05/30 05:31:26;;;;;;;4.40;3.50;;;;;;;15.76;75.86;99390.05;1614442;88;21098;-71
2021/05/30 05:33:52;;;;;;;4.17;3.37;;;;;;;15.77;74.91;99375.39;1604997;88;21824;-72
2021/05/30 05:36:20;;;;;;;6.30;2.92;;;;;;;15.75;74.33;99373.51;1589237;88;21057;-72
2021/05/30 05:38:46;;;;;;;5.00;2.67;;;;;;;15.73;74.50;99386.57;1592686;89;21133;-73
2021/05/30 05:41:13;;;;;;;2.92;2.58;;;;;;;15.76;73.82;99377.84;1570722;90;21045;-71
2021/05/30 05:43:39;;;;;;;2.92;2.10;;;;;;;15.79;73.44;99373.18;1591318;90;21573;-72
2021/05/30 05:46:06;;;;;;;2.65;2.45;;;;;;;15.77;72.83;99387.59;1591251;89;21022;-73
2021/05/30 05:48:34;;;;;;;5.47;2.92;;;;;;;15.70;72.61;99387.94;1591674;89;21598;-72
2021/05/30 05:51:00;;;;;;;3.72;2.77;;;;;;;15.68;72.54;99367.89;1591470;89;21144;-71
2021/05/30 05:53:27;;;;;;;6.37;2.45;;;;;;;15.62;72.58;99372.33;1592729;88;21073;-75
2021/05/30 05:55:54;;;;;;;5.37;2.85;;;;;;;15.58;73.42;99376.17;1594133;88;21092;-73
2021/05/30 05:58:20;;;;;;;3.33;3.02;;;;;;;15.60;73.88;99376.67;1564870;90;21107;-71
2021/05/30 06:00:47;;;;;;;5.65;2.72;;;;;;;15.65;73.81;99379.88;1585968;88;21011;-71
2021/05/30 06:03:14;;;;;;;2.27;2.15;;;;;;;15.73;73.99;99383.28;1618501;88;21107;-72
2021/05/30 06:05:40;;;;;;;2.30;2.20;;;;;;;15.78;73.50;99390.58;1618293;87;21621;-73
2021/05/30 06:08:06;;;;;;;3.90;2.62;;;;;;;15.80;73.13;99379.67;1618639;88;21546;-73
2021/05/30 06:10:33;;;;;;;2.37;2.17;;;;;;;15.81;73.23;99381.84;1587439;88;21098;-73
2021/05/30 06:13:03;;;;;;;3.12;2.50;;;;;;;15.78;73.36;99379.15;1591746;88;20971;-73
2021/05/30 06:15:32;;;;;;;2.35;2.15;;;;;;;15.66;73.52;99371.45;1618155;88;21066;-73
2021/05/30 06:18:03;;;;;;;4.78;2.47;;;;;;;15.60;73.87;99369.90;1611111;88;21017;-76
2021/05/30 06:20:27;;;;;;;2.75;2.55;;;;;;;15.59;74.17;99378.31;1616102;88;21086;-70
2021/05/30 06:22:55;;;;;;;2.50;2.35;;;;;;;15.64;73.96;99372.83;1609384;88;21006;-72
2021/05/30 06:25:26;;;;;;;2.25;2.05;;;;;;;15.65;73.91;99356.28;1584511;88;21046;-72
2021/05/30 06:27:51;;;;;;;2.47;2.22;;;;;;;15.63;72.47;99373.95;1572345;90;21038;-70
2021/05/30 06:30:20;;;;;;;1.80;1.70;;;;;;;15.68;71.92;99387.44;1568185;90;21151;-72
2021/05/30 06:32:48;;;;;;;2.52;2.33;;;;;;;15.76;71.44;99384.08;1580965;88;20981;-74
2021/05/30 06:35:14;;;;;;;3.45;2.45;;;;;;;15.83;70.62;99377.73;1583356;88;21156;-75
2021/05/30 06:37:42;;;;;;;3.05;1.98;;;;;;;15.81;69.78;99393.50;1578280;88;21054;-75
2021/05/30 06:40:09;;;;;;;4.45;2.15;;;;;;;15.81;69.95;99394.05;1577907;89;21284;-74
2021/05/30 06:42:36;;;;;;;2.67;2.10;;;;;;;15.81;69.26;99398.92;1578083;91;21010;-74
2021/05/30 06:45:04;;;;;;;13.80;3.35;;;;;;;15.69;70.28;99397.16;1579032;88;21070;-74
2021/05/30 06:47:31;;;;;;;1.70;1.60;;;;;;;15.67;71.00;99397.48;1577947;89;21774;-73
2021/05/30 06:49:58;;;;;;;2.60;2.40;;;;;;;15.71;72.00;99396.34;1577944;90;21163;-72
2021/05/30 06:52:25;;;;;;;2.35;1.45;;;;;;;15.81;71.73;99399.47;1587050;88;21102;-72
2021/05/30 06:54:53;;;;;;;2.20;2.00;;;;;;;15.89;71.19;99400.17;1618821;88;21107;-74
2021/05/30 06:57:19;;;;;;;1.90;1.75;;;;;;;15.92;70.71;99395.53;1599633;88;21657;-74
2021/05/30 06:59:48;;;;;;;4.20;2.37;;;;;;;15.86;71.14;99414.33;1588339;88;21061;-74
2021/05/30 07:02:16;;;;;;;2.35;2.15;;;;;;;15.78;71.72;99410.33;1618808;87;21066;-75
2021/05/30 07:04:43;;;;;;;2.67;1.87;;;;;;;15.79;72.19;99407.08;1598783;88;21086;-74
2021/05/30 07:07:11;;;;;;;1.85;1.75;;;;;;;15.84;71.68;99415.96;1614888;87;21042;-73
2021/05/30 07:09:37;;;;;;;1.57;1.47;;;;;;;15.89;70.10;99409.66;1598812;88;21110;-73
2021/05/30 07:12:07;;;;;;;1.72;1.62;;;;;;;15.93;69.59;99416.92;1596441;88;21038;-73
2021/05/30 07:14:35;;;;;;;3.58;1.80;;;;;;;15.98;70.22;99410.08;1618928;88;21598;-72
2021/05/30 07:17:02;;;;;;;2.10;1.95;;;;;;;16.10;68.56;99415.08;1599630;88;21218;-72
2021/05/30 07:19:32;;;;;;;1.98;1.60;;;;;;;16.17;68.14;99419.58;1592274;87;21646;-75
2021/05/30 07:21:58;;;;;;;1.17;1.07;;;;;;;16.24;68.49;99411.89;1543546;91;21053;-73
2021/05/30 07:24:30;;;;;;;1.85;1.75;;;;;;;16.34;67.68;99417.17;1599237;88;21073;-74
2021/05/30 07:26:57;;;;;;;1.75;1.65;;;;;;;16.42;67.95;99414.34;1613036;88;21523;-74
2021/05/30 07:29:24;;;;;;;1.30;1.20;;;;;;;16.49;67.96;99418.86;1604639;88;21093;-72
2021/05/30 07:31:50;;;;;;;2.45;1.55;;;;;;;16.51;67.11;99423.42;1615627;87;21004;-75
2021/05/30 07:34:17;;;;;;;3.02;1.92;;;;;;;16.49;67.44;99428.36;1570161;90;21077;-73
2021/05/30 07:36:45;;;;;;;9.63;2.10;;;;;;;16.44;66.92;99430.59;1591478;89;21071;-73
2021/05/30 07:39:13;;;;;;;2.40;2.27;;;;;;;16.40;67.46;99438.27;1585650;88;21619;-74
2021/05/30 07:41:40;;;;;;;1.57;1.45;;;;;;;16.41;67.26;99434.42;1606795;88;21129;-72
2021/05/30 07:44:06;;;;;;;2.58;2.02;;;;;;;16.36;67.67;99433.14;1579250;90;21084;-73
2021/05/30 07:46:33;;;;;;;1.70;1.60;;;;;;;16.26;68.17;99430.03;1591356;88;21025;-74
2021/05/30 07:49:01;;;;;;;2.00;1.90;;;;;;;16.27;68.31;99428.13;1591428;89;21094;-74
2021/05/30 07:51:28;;;;;;;2.00;1.72;;;;;;;16.30;68.50;99438.41;1579250;88;22380;-73
2021/05/30 07:53:54;;;;;;;2.47;1.70;;;;;;;16.33;68.30;99441.89;1603529;88;21177;-72
2021/05/30 07:56:21;;;;;;;2.77;1.50;;;;;;;16.36;68.31;99441.29;1598238;88;21695;-74
2021/05/30 07:58:49;;;;;;;1.65;1.55;;;;;;;16.37;68.49;99445.08;1571454;90;21553;-73
2021/05/30 08:01:17;;;;;;;2.30;2.10;;;;;;;16.44;68.77;99451.50;1596287;88;21089;-71
2021/05/30 08:03:43;;;;;;;1.72;1.62;;;;;;;16.46;68.27;99442.50;1575004;89;21945;-72
2021/05/30 08:06:10;;;;;;;1.90;1.57;;;;;;;16.48;67.75;99447.09;1563120;91;21097;-71
2021/05/30 08:08:36;;;;;;;2.62;1.92;;;;;;;16.43;67.54;99456.12;1591346;89;21098;-74
2021/05/30 08:11:04;;;;;;;3.08;1.67;;;;;;;16.40;67.81;99445.83;1591983;88;21038;-73
2021/05/30 08:13:30;;;;;;;2.05;1.85;;;;;;;16.38;67.98;99459.45;1611018;88;21126;-74
2021/05/30 08:15:58;;;;;;;1.80;1.70;;;;;;;16.37;68.46;99465.98;1584235;88;21189;-75
2021/05/30 08:18:24;;;;;;;2.02;1.80;;;;;;;16.34;68.46;99465.22;1589500;88;21112;-72
2021/05/30 08:20:53;;;;;;;1.72;1.62;;;;;;;16.25;68.57;99466.44;1606765;87;21106;-73
2021/05/30 08:23:19;;;;;;;2.50;1.95;;;;;;;16.11;69.18;99466.90;1581480;88;21091;-71
2021/05/30 08:25:46;;;;;;;4.05;2.50;;;;;;;16.10;69.13;99470.70;1600189;87;21617;-70
2021/05/30 08:28:12;;;;;;;1.80;1.70;;;;;;;16.03;69.78;99471.59;1587423;90;21082;-72
2021/05/30 08:30:39;;;;;;;2.33;2.12;;;;;;;16.01;70.06;99482.75;1610978;88;21505;-70
2021/05/30 08:33:06;;;;;;;2.20;2.10;;;;;;;16.04;70.29;99480.00;1565399;90;21054;-69
2021/05/30 08:35:32;;;;;;;2.08;1.98;;;;;;;16.01;70.43;99480.04;1613836;88;21654;-70
2021/05/30 08:38:00;;;;;;;5.53;3.77;;;;;;;16.00;70.36;99474.35;1577870;88;21010;-71
2021/05/30 08:40:27;;;;;;;3.87;3.55;;;;;;;15.96;70.51;99474.67;1613077;88;21042;-72
2021/05/30 08:42:54;;;;;;;7.97;4.70;;;;;;;15.97;70.67;99480.34;1595617;88;21065;-72
2021/05/30 08:45:20;;;;;;;3.27;2.92;;;;;;;16.00;70.59;99473.54;1572325;90;21093;-72
2021/05/30 08:47:48;;;;;;;7.17;3.37;;;;;;;15.98;70.69;99473.82;1603469;88;21038;-73
2021/05/30 08:50:15;;;;;;;3.55;3.25;;;;;;;15.94;70.85;99471.98;1590935;88;21026;-72
2021/05/30 08:52:41;;;;;;;3.33;2.72;;;;;;;15.91;71.04;99478.00;1618509;88;20987;-71
2021/05/30 08:55:10;;;;;;;5.35;3.12;;;;;;;15.85;70.91;99479.14;1618413;88;21128;-72
2021/05/30 08:57:36;;;;;;;4.53;2.10;;;;;;;15.83;71.28;99488.11;1619190;88;21053;-72
2021/05/30 09:00:05;;;;;;;5.92;2.60;;;;;;;15.84;71.47;99488.38;1598385;88;20915;-71
2021/05/30 09:02:32;;;;;;;2.98;2.67;;;;;;;15.81;71.61;99491.67;1618978;87;20986;-73
2021/05/30 09:05:01;;;;;;;2.67;2.47;;;;;;;15.70;71.77;99494.50;1587863;89;21169;-73
2021/05/30 09:07:45;;;;;;;4.30;3.47;;;;;;;15.58;72.36;99494.10;1611355;88;21535;-71
2021/05/30 09:10:26;;;;;;;2.83;2.62;;;;;;;15.53;72.79;99506.34;1598618;88;21046;-71
2021/05/30 09:13:15;;;;;;;2.10;1.90;;;;;;;15.52;73.05;99503.91;1617092;87;21634;-71
2021/05/30 09:15:54;;;;;;;5.20;3.10;;;;;;;15.53;73.10;99505.00;1607285;88;21081;-71
2021/05/30 09:18:32;;;;;;;5.40;2.70;;;;;;;15.54;73.45;99509.88;1585591;89;21013;-73
2021/05/30 09:21:05;;;;;;;3.15;2.85;;;;;;;15.56;73.24;99502.24;1585280;89;21874;-74
2021/05/30 09:23:43;;;;;;;5.85;2.87;;;;;;;15.59;73.36;99507.89;1596706;88;21645;-74
2021/05/30 09:26:22;;;;;;;4.70;4.30;;;;;;;15.54;73.41;99497.67;1580147;89;21098;-73
2021/05/30 09:29:07;;;;;;;2.92;2.37;;;;;;;15.48;73.62;99500.14;1570447;89;22300;-73
2021/05/30 09:31:37;;;;;;;4.30;2.45;;;;;;;15.48;74.04;99506.91;1597065;88;21465;-71
2021/05/30 09:34:34;;;;;;;6.65;3.05;;;;;;;15.45;74.14;99510.98;1596488;89;21181;-72
2021/05/30 09:37:02;;;;;;;3.90;3.10;;;;;;;15.39;74.65;99509.44;1597051;89;21085;-70
2021/05/30 09:39:44;;;;;;;3.40;3.12;;;;;;;15.33;75.02;99510.58;1558983;90;21040;-73
2021/05/30 09:42:39;;;;;;;7.53;2.95;;;;;;;15.31;75.06;99501.09;1577967;89;21153;-72
2021/05/30 09:45:09;;;;;;;3.37;2.40;;;;;;;15.22;75.42;99507.69;1567925;89;21006;-72
2021/05/30 09:47:41;;;;;;;3.95;3.22;;;;;;;15.11;76.24;99513.73;1593366;88;21069;-74
2021/05/30 09:50:17;;;;;;;3.20;2.30;;;;;;;15.10;76.53;99516.74;1582187;89;21069;-72
2021/05/30 09:52:52;;;;;;;3.95;2.75;;;;;;;15.13;76.65;99527.00;1579326;89;21645;-73
2021/05/30 09:55:26;;;;;;;5.28;3.25;;;;;;;15.11;76.79;99521.05;1570407;89;21126;-73
2021/05/30 09:58:19;;;;;;;10.05;2.80;;;;;;;15.09;76.91;99520.54;1575444;89;21050;-74
2021/05/30 10:00:59;;;;;;;2.45;2.33;;;;;;;15.13;77.01;99527.81;1596702;88;27168;-74
2021/05/30 10:03:26;;;;;;;5.28;3.00;;;;;;;15.18;76.58;99531.03;1586262;89;21148;-72
2021/05/30 10:05:52;;;;;;;5.42;2.70;;;;;;;15.13;76.68;99528.36;1604548;88;21154;-73
2021/05/30 10:08:22;;;;;;;4.08;3.33;;;;;;;15.12;76.96;99527.55;1597060;89;21030;-80
2021/05/30 10:10:49;;;;;;;6.33;3.02;;;;;;;15.05;76.92;99532.49;1557079;91;21082;-75
2021/05/30 10:13:15;;;;;;;4.25;3.17;;;;;;;15.08;76.80;99539.23;1578277;89;21617;-83
2021/05/30 10:15:42;;;;;;;5.00;3.70;;;;;;;15.05;76.84;99543.33;1569434;89;21609;-72
2021/05/30 10:18:17;;;;;;;6.92;2.95;;;;;;;15.08;77.13;99547.36;1624115;88;21018;-71
2021/05/30 10:20:45;;;;;;;5.85;3.10;;;;;;;15.04;76.79;99550.38;1628537;87;20981;-70
2021/05/30 10:23:13;;;;;;;3.70;3.05;;;;;;;15.02;76.96;99543.87;1625872;88;21033;-73
2021/05/30 10:25:40;;;;;;;3.22;2.92;;;;;;;15.04;77.12;99543.06;1605212;88;21166;-70
2021/05/30 10:28:11;;;;;;;4.70;2.87;;;;;;;15.08;77.08;99549.52;1578555;90;20997;-71
2021/05/30 10:30:44;;;;;;;3.67;3.27;;;;;;;15.08;77.08;99546.81;1603439;88;21061;-71
2021/05/30 10:33:24;;;;;;;3.42;3.12;;;;;;;15.09;76.89;99552.50;1609189;88;21093;-73
2021/05/30 10:35:54;;;;;;;5.33;3.35;;;;;;;15.14;76.59;99548.94;1610111;88;21062;-71
2021/05/30 10:38:43;;;;;;;5.67;2.87;;;;;;;15.15;76.50;99548.67;1620890;87;21034;-71
2021/05/30 10:41:20;;;;;;;3.72;2.90;;;;;;;15.15;76.38;99548.67;1628632;88;21014;-71
2021/05/30 10:43:47;;;;;;;3.95;3.42;;;;;;;15.13;76.19;99556.26;1586588;88;21017;-71
2021/05/30 10:46:13;;;;;;;3.98;3.17;;;;;;;15.05;76.30;99550.09;1589830;88;21076;-70
2021/05/30 10:48:41;;;;;;;3.92;3.50;;;;;;;15.06;76.35;99556.33;1578798;90;21054;-70
2021/05/30 10:53:51;;;;;;;7.95;2.75;;;;;;;15.17;76.25;99551.89;1607978;87;21611;-71
2021/05/30 10:56:30;;;;;;;3.45;2.42;;;;;;;15.27;75.35;99550.99;1602810;89;21033;-72
2021/05/30 10:59:15;;;;;;;3.62;2.40;;;;;;;15.33;74.48;99550.41;1589700;88;21245;-69
2021/05/30 11:01:49;;;;;;;3.67;2.60;;;;;;;15.38;74.35;99550.37;1654733;86;21145;-71
2021/05/30 11:04:29;;;;;;;3.55;2.90;;;;;;;15.44;73.93;99552.76;1626471;87;21018;-74
2021/05/30 11:07:20;;;;;;;3.25;2.67;;;;;;;15.48;73.75;99560.58;1652783;86;21013;-73
2021/05/30 11:09:58;;;;;;;3.65;3.35;;;;;;;15.50;73.67;99557.56;1658269;86;21003;-72
2021/05/30 11:12:35;;;;;;;4.53;2.75;;;;;;;15.52;73.52;99565.72;1655962;86;21097;-72
2021/05/30 11:15:14;;;;;;;4.45;2.02;;;;;;;15.52;73.48;99565.72;1641206;86;21136;-72
2021/05/30 11:17:49;;;;;;;3.30;3.00;;;;;;;15.46;73.43;99564.11;1635010;86;21127;-73
2021/05/30 11:20:45;;;;;;;3.12;2.33;;;;;;;15.47;73.53;99562.20;1625748;88;21634;-73
2021/05/30 11:23:17;;;;;;;2.90;2.47;;;;;;;15.49;73.89;99560.03;1626010;88;21094;-73
2021/05/30 11:25:54;;;;;;;6.40;2.77;;;;;;;15.53;73.88;99556.50;1625712;88;21667;-73
2021/05/30 11:28:25;;;;;;;4.65;2.70;;;;;;;15.56;73.97;99563.23;1629062;86;21074;-73
2021/05/30 11:31:07;;;;;;;6.62;3.45;;;;;;;15.56;74.18;99564.59;1629803;86;21141;-72
2021/05/30 11:33:40;;;;;;;2.80;2.52;;;;;;;15.52;74.29;99561.66;1636973;86;21061;-74
2021/05/30 11:36:19;;;;;;;5.45;3.17;;;;;;;15.42;73.75;99561.71;1650299;86;21027;-75
2021/05/30 11:38:54;;;;;;;3.33;2.67;;;;;;;15.36;73.83;99564.19;1625012;86;21160;-73
2021/05/30 11:41:26;;;;;;;2.67;2.42;;;;;;;15.37;73.87;99578.55;1634870;86;21125;-74
2021/05/30 11:44:13;;;;;;;3.50;2.77;;;;;;;15.38;74.01;99585.05;1558008;92;21570;-75
2021/05/30 11:46:54;;;;;;;6.53;2.70;;;;;;;15.39;74.25;99591.29;1574656;89;21103;-74
2021/05/30 11:49:25;;;;;;;2.30;2.10;;;;;;;15.36;74.27;99594.00;1604171;89;21565;-75